Time;durP1;ratioP1;P1;durP2;ratioP2;P2;SDS_P1;SDS_P2;PMS_P1;PMS_P2;Temp;Humidity;BMP_temperature;BMP_pressure;BME280_temperature;BME280_humidity;BME280_pressure;Samples;Min_cycle;Max_cycle;Signal;HPM_P1;HPM_P2
2022/03/26 00:02:27;;;;;;;;;;;;;;;9.89;39.80;100590.25;5225579;27;33762;-89
2022/03/26 00:04:55;;;;;;;;;;;;;;;9.98;39.79;100587.69;5230328;27;32790;-89
2022/03/26 00:07:28;;;;;;;;;;;;;;;9.87;39.86;100592.81;5224400;27;34159;-89
2022/03/26 00:09:56;;;;;;;;;;;;;;;9.79;40.02;100592.78;5223391;27;34178;-88
2022/03/26 00:12:25;;;;;;;;;;;;;;;9.86;39.86;100590.19;5225854;27;33947;-89
2022/03/26 00:14:53;;;;;;;;;;;;;;;9.76;40.14;100599.66;5225053;27;34119;-89
2022/03/26 00:17:22;;;;;;;;;;;;;;;9.78;39.79;100595.34;5229884;27;33620;-89
2022/03/26 00:19:50;;;;;;;;;;;;;;;9.85;39.78;100598.84;5224327;27;34218;-89
2022/03/26 00:22:19;;;;;;;;;;;;;;;9.91;39.75;100599.75;5222678;27;34499;-88
2022/03/26 00:24:49;;;;;;;;;;;;;;;9.88;39.98;100604.03;5223353;27;33666;-89
2022/03/26 00:27:17;;;;;;;;;;;;;;;9.91;39.97;100601.47;5225951;27;34268;-89
2022/03/26 00:29:46;;;;;;;;;;;;;;;9.93;39.94;100604.91;5230948;27;34693;-88
2022/03/26 00:32:15;;;;;;;;;;;;;;;9.93;40.04;100599.72;5224390;27;34175;-88
2022/03/26 00:34:43;;;;;;;;;;;;;;;9.99;39.84;100607.56;5224610;27;33362;-88
2022/03/26 00:37:12;;;;;;;;;;;;;;;9.94;39.88;100593.72;5224947;27;33535;-88
2022/03/26 00:39:42;;;;;;;;;;;;;;;9.99;39.93;100592.84;5225540;27;33920;-88
2022/03/26 00:42:14;;;;;;;;;;;;;;;9.91;40.03;100598.91;5228538;27;34766;-88
2022/03/26 00:44:43;;;;;;;;;;;;;;;10.00;39.89;100599.78;5230215;27;34390;-88
2022/03/26 00:47:11;;;;;;;;;;;;;;;9.97;40.01;100598.91;5223152;27;35159;-88
2022/03/26 00:49:40;;;;;;;;;;;;;;;10.04;39.28;100600.66;5223380;27;33889;-88
2022/03/26 00:52:08;;;;;;;;;;;;;;;10.06;39.50;100598.94;5222184;27;34085;-89
2022/03/26 00:54:37;;;;;;;;;;;;;;;10.00;39.47;100594.59;5223243;27;34004;-90
2022/03/26 00:57:05;;;;;;;;;;;;;;;9.96;39.61;100594.59;5228745;27;33474;-89
2022/03/26 00:59:35;;;;;;;;;;;;;;;10.06;39.40;100591.16;5224816;27;34495;-89
2022/03/26 01:02:04;;;;;;;;;;;;;;;10.10;39.45;100590.31;5223543;27;34131;-89
2022/03/26 01:04:32;;;;;;;;;;;;;;;10.11;39.51;100592.03;5223522;27;32964;-88
2022/03/26 01:07:01;;;;;;;;;;;;;;;10.15;39.53;100600.72;5231402;27;34623;-89
2022/03/26 01:09:29;;;;;;;;;;;;;;;10.07;39.62;100590.28;5206538;27;34144;-89
2022/03/26 01:11:57;;;;;;;;;;;;;;;10.00;40.08;100586.84;5225152;27;33643;-89
2022/03/26 01:14:27;;;;;;;;;;;;;;;10.01;39.99;100591.12;5226092;27;33847;-89
2022/03/26 01:16:56;;;;;;;;;;;;;;;10.11;39.63;100586.84;5223599;27;33249;-89
2022/03/26 01:19:25;;;;;;;;;;;;;;;10.09;39.81;100587.72;5231834;27;33807;-89
2022/03/26 01:21:53;;;;;;;;;;;;;;;10.04;39.94;100579.91;5224837;27;33868;-89
2022/03/26 01:24:21;;;;;;;;;;;;;;;10.00;40.12;100583.34;5226673;27;33335;-88
2022/03/26 01:26:50;;;;;;;;;;;;;;;9.98;40.29;100579.91;5225296;27;33515;-89
2022/03/26 01:29:19;;;;;;;;;;;;;;;9.99;40.92;100582.50;5226272;27;33939;-89
2022/03/26 01:31:47;;;;;;;;;;;;;;;9.88;41.52;100580.72;5229454;27;33897;-90
2022/03/26 01:34:17;;;;;;;;;;;;;;;9.90;41.96;100577.25;5226090;27;33506;-89
2022/03/26 01:36:46;;;;;;;;;;;;;;;10.01;42.35;100578.19;5226102;27;33787;-89
2022/03/26 01:39:18;;;;;;;;;;;;;;;9.93;42.79;100577.31;5207875;27;33040;-89
2022/03/26 01:41:47;;;;;;;;;;;;;;;9.95;42.50;100574.69;5225526;27;34993;-89
2022/03/26 01:44:16;;;;;;;;;;;;;;;9.83;43.58;100567.72;5225833;27;33069;-89
2022/03/26 01:46:45;;;;;;;;;;;;;;;9.79;43.40;100569.47;5230524;27;34105;-89
2022/03/26 01:49:14;;;;;;;;;;;;;;;9.77;43.54;100566.00;5226419;27;33922;-89
2022/03/26 01:51:44;;;;;;;;;;;;;;;9.88;44.33;100567.75;5225225;27;33949;-89
2022/03/26 01:54:12;;;;;;;;;;;;;;;9.77;44.44;100571.19;5225538;27;33868;-89
2022/03/26 01:56:41;;;;;;;;;;;;;;;9.71;44.81;100566.00;5225123;27;34021;-89
2022/03/26 01:59:10;;;;;;;;;;;;;;;9.63;44.58;100570.25;5232538;27;34503;-89
2022/03/26 02:01:39;;;;;;;;;;;;;;;9.59;44.49;100559.03;5224734;27;34721;-89
2022/03/26 02:04:08;;;;;;;;;;;;;;;9.61;44.60;100561.59;5225671;27;33122;-89
2022/03/26 02:06:38;;;;;;;;;;;;;;;9.66;44.78;100567.66;5206756;27;33817;-89
2022/03/26 02:09:08;;;;;;;;;;;;;;;9.65;44.76;100562.50;5226190;27;34214;-89
2022/03/26 02:11:38;;;;;;;;;;;;;;;9.53;44.39;100566.75;5232314;27;33781;-90
2022/03/26 02:14:08;;;;;;;;;;;;;;;9.63;44.00;100561.63;5205706;27;31884;-89
2022/03/26 02:16:37;;;;;;;;;;;;;;;9.65;43.74;100560.75;5225064;27;34575;-89
2022/03/26 02:19:06;;;;;;;;;;;;;;;9.57;43.83;100560.72;5225042;27;34090;-89
2022/03/26 02:21:37;;;;;;;;;;;;;;;9.53;43.90;100561.56;5225379;27;33696;-89
2022/03/26 02:24:06;;;;;;;;;;;;;;;9.55;43.88;100561.59;5226456;27;32535;-90
2022/03/26 02:26:35;;;;;;;;;;;;;;;9.45;43.96;100559.78;5230778;27;34489;-89
2022/03/26 02:29:07;;;;;;;;;;;;;;;9.29;44.20;100562.28;5228298;27;33869;-89
2022/03/26 02:31:36;;;;;;;;;;;;;;;9.27;44.24;100564.00;5206802;27;33218;-89
2022/03/26 02:34:04;;;;;;;;;;;;;;;9.24;44.33;100561.41;5224920;27;33424;-90
2022/03/26 02:36:33;;;;;;;;;;;;;;;9.15;44.51;100557.03;5226611;27;34521;-89
2022/03/26 02:39:03;;;;;;;;;;;;;;;9.09;44.84;100557.00;5230909;27;34048;-89
2022/03/26 02:41:33;;;;;;;;;;;;;;;9.07;44.95;100553.53;5225626;27;34440;-89
2022/03/26 02:44:01;;;;;;;;;;;;;;;8.92;45.35;100556.03;5225558;27;33597;-89
2022/03/26 02:46:30;;;;;;;;;;;;;;;8.85;45.65;100549.06;5226760;27;34059;-90
2022/03/26 02:48:58;;;;;;;;;;;;;;;8.86;45.50;100553.38;5225475;27;34261;-90
2022/03/26 02:51:27;;;;;;;;;;;;;;;8.93;45.27;100550.84;5231769;27;34445;-89
2022/03/26 02:53:55;;;;;;;;;;;;;;;8.96;45.42;100561.22;5223523;27;33197;-89
2022/03/26 02:56:25;;;;;;;;;;;;;;;8.97;45.04;100565.53;5225435;27;34180;-90
2022/03/26 02:58:54;;;;;;;;;;;;;;;8.78;45.53;100563.66;5222401;27;34201;-90
2022/03/26 03:01:24;;;;;;;;;;;;;;;8.84;45.67;100558.53;5225990;27;34192;-89
2022/03/26 03:03:52;;;;;;;;;;;;;;;8.86;45.54;100562.00;5230940;27;34102;-89
2022/03/26 03:06:21;;;;;;;;;;;;;;;8.87;45.40;100563.75;5206764;27;33790;-89
2022/03/26 03:08:49;;;;;;;;;;;;;;;8.83;45.50;100555.94;5225656;27;34071;-89
2022/03/26 03:11:18;;;;;;;;;;;;;;;8.85;45.19;100551.66;5225907;27;33727;-90
2022/03/26 03:13:48;;;;;;;;;;;;;;;8.50;45.96;100568.59;5225537;27;33156;-89
2022/03/26 03:16:17;;;;;;;;;;;;;;;8.17;46.70;100560.50;5230357;27;34129;-89
2022/03/26 03:18:45;;;;;;;;;;;;;;;8.11;46.64;100569.88;5224674;27;35056;-89
2022/03/26 03:21:17;;;;;;;;;;;;;;;8.31;45.95;100556.28;5226244;27;34114;-90
2022/03/26 03:23:45;;;;;;;;;;;;;;;8.04;46.39;100562.91;5224034;27;33532;-89
2022/03/26 03:26:15;;;;;;;;;;;;;;;8.13;46.37;100564.75;5226629;27;34545;-89
2022/03/26 03:28:44;;;;;;;;;;;;;;;8.16;46.19;100558.72;5232166;27;33721;-89
2022/03/26 03:31:14;;;;;;;;;;;;;;;7.88;46.58;100561.03;5226314;27;34087;-89
2022/03/26 03:33:42;;;;;;;;;;;;;;;7.74;46.99;100562.56;5226393;27;33456;-89
2022/03/26 03:36:11;;;;;;;;;;;;;;;7.96;46.35;100558.53;5227026;27;34863;-89
2022/03/26 03:38:39;;;;;;;;;;;;;;;8.22;45.75;100554.50;5225711;27;34147;-89
2022/03/26 03:41:08;;;;;;;;;;;;;;;8.12;45.88;100561.28;5228624;27;34175;-90
2022/03/26 03:43:37;;;;;;;;;;;;;;;8.06;46.35;100560.34;5232083;27;33226;-90
2022/03/26 03:46:05;;;;;;;;;;;;;;;8.04;46.62;100556.88;5225897;27;34133;-89
2022/03/26 03:48:35;;;;;;;;;;;;;;;7.79;47.26;100560.91;5226363;27;34602;-89
2022/03/26 03:51:03;;;;;;;;;;;;;;;7.60;47.70;100554.66;5224762;27;34211;-89
2022/03/26 03:53:32;;;;;;;;;;;;;;;7.80;47.24;100560.06;5226002;27;33718;-90
2022/03/26 03:56:00;;;;;;;;;;;;;;;7.92;46.90;100555.03;5232039;27;33776;-90
2022/03/26 03:58:29;;;;;;;;;;;;;;;8.03;46.53;100556.03;5226219;27;33982;-90
2022/03/26 04:01:02;;;;;;;;;;;;;;;7.88;46.76;100543.81;5225691;27;34426;-89
2022/03/26 04:03:31;;;;;;;;;;;;;;;7.75;47.24;100548.78;5225824;27;33347;-89
2022/03/26 04:06:01;;;;;;;;;;;;;;;7.88;46.83;100542.94;5226847;27;34153;-88
2022/03/26 04:08:30;;;;;;;;;;;;;;;7.76;47.13;100555.72;5231438;27;34122;-89
2022/03/26 04:10:58;;;;;;;;;;;;;;;7.64;47.34;100553.84;5227045;27;34797;-89
2022/03/26 04:13:27;;;;;;;;;;;;;;;7.81;47.02;100549.75;5224801;27;33596;-89
2022/03/26 04:15:55;;;;;;;;;;;;;;;7.64;47.60;100551.25;5205974;27;32412;-89
2022/03/26 04:18:24;;;;;;;;;;;;;;;7.88;46.96;100546.38;5226312;27;34697;-89
2022/03/26 04:20:53;;;;;;;;;;;;;;;7.75;47.17;100548.78;5231530;27;34816;-89
2022/03/26 04:23:23;;;;;;;;;;;;;;;7.83;46.93;100554.94;5225064;27;33469;-90
2022/03/26 04:25:51;;;;;;;;;;;;;;;7.54;47.59;100550.28;5226524;27;33818;-89
2022/03/26 04:28:22;;;;;;;;;;;;;;;7.68;47.18;100563.34;5225883;27;34902;-90
2022/03/26 04:30:50;;;;;;;;;;;;;;;7.78;47.05;100560.06;5225185;27;34020;-89
2022/03/26 04:33:19;;;;;;;;;;;;;;;7.70;47.36;100567.69;5226698;27;33289;-90
2022/03/26 04:35:47;;;;;;;;;;;;;;;7.76;47.14;100569.50;5230363;27;34453;-89
2022/03/26 04:38:16;;;;;;;;;;;;;;;7.72;47.19;100570.28;5226640;27;34424;-89
2022/03/26 04:40:46;;;;;;;;;;;;;;;7.84;46.80;100572.16;5206347;27;33381;-89
2022/03/26 04:43:14;;;;;;;;;;;;;;;7.60;47.15;100571.00;5226527;27;33097;-89
2022/03/26 04:45:43;;;;;;;;;;;;;;;7.48;47.64;100576.00;5224696;27;34135;-89
2022/03/26 04:48:13;;;;;;;;;;;;;;;7.53;47.43;100579.50;5231956;27;33971;-89
2022/03/26 04:50:41;;;;;;;;;;;;;;;7.49;47.48;100580.34;5207652;27;34305;-90
2022/03/26 04:53:10;;;;;;;;;;;;;;;7.50;47.62;100568.28;5224199;27;34007;-89
2022/03/26 04:55:38;;;;;;;;;;;;;;;7.64;47.20;100577.94;5226622;27;33459;-89
2022/03/26 04:58:08;;;;;;;;;;;;;;;7.40;47.86;100575.03;5225526;27;33944;-89
2022/03/26 05:00:36;;;;;;;;;;;;;;;7.68;47.26;100574.56;5230517;27;33241;-90
2022/03/26 05:03:05;;;;;;;;;;;;;;;7.56;47.76;100576.09;5225232;27;33180;-91
2022/03/26 05:05:34;;;;;;;;;;;;;;;7.69;47.40;100578.88;5225944;27;34371;-89
2022/03/26 05:08:02;;;;;;;;;;;;;;;7.64;47.77;100566.75;5225440;27;33846;-90
2022/03/26 05:10:32;;;;;;;;;;;;;;;7.99;47.06;100580.09;5226099;27;34834;-89
2022/03/26 05:13:01;;;;;;;;;;;;;;;8.06;47.01;100575.84;5231568;27;33346;-89
2022/03/26 05:15:31;;;;;;;;;;;;;;;8.00;47.23;100579.25;5226326;27;33602;-89
2022/03/26 05:18:00;;;;;;;;;;;;;;;8.11;46.74;100585.38;5226311;27;33295;-89
2022/03/26 05:20:28;;;;;;;;;;;;;;;8.52;45.55;100584.12;5226026;27;34021;-90
2022/03/26 05:22:57;;;;;;;;;;;;;;;8.94;44.25;100586.22;5226366;27;33756;-89
2022/03/26 05:25:25;;;;;;;;;;;;;;;9.01;43.72;100583.66;5225570;27;34141;-91
2022/03/26 05:27:54;;;;;;;;;;;;;;;8.89;44.05;100587.03;5231703;27;33357;-90
2022/03/26 05:30:22;;;;;;;;;;;;;;;8.78;44.45;100591.25;5224744;27;33443;-89
2022/03/26 05:32:52;;;;;;;;;;;;;;;8.66;44.70;100594.59;5206097;27;33740;-89
2022/03/26 05:35:21;;;;;;;;;;;;;;;8.68;44.53;100587.72;5226222;27;33975;-89
2022/03/26 05:37:50;;;;;;;;;;;;;;;8.66;44.69;100592.87;5226559;27;34461;-90
2022/03/26 05:40:19;;;;;;;;;;;;;;;8.73;44.65;100596.41;5211607;27;33283;-90
2022/03/26 05:42:48;;;;;;;;;;;;;;;8.70;44.53;100596.37;5225901;27;33138;-90
2022/03/26 05:45:17;;;;;;;;;;;;;;;8.90;44.36;100600.00;5226098;27;34146;-89
2022/03/26 05:47:48;;;;;;;;;;;;;;;8.67;44.93;100593.75;5227033;27;34135;-89
2022/03/26 05:50:18;;;;;;;;;;;;;;;8.81;44.73;100593.88;5225334;27;34457;-89
2022/03/26 05:52:46;;;;;;;;;;;;;;;8.85;44.72;100598.22;5231797;27;33251;-89
2022/03/26 05:55:16;;;;;;;;;;;;;;;9.02;43.98;100595.78;5226522;27;33922;-89
2022/03/26 05:57:48;;;;;;;;;;;;;;;9.04;44.19;100596.66;5225390;27;34408;-91
2022/03/26 06:00:17;;;;;;;;;;;;;;;9.08;44.14;100595.81;5225915;27;34848;-90
2022/03/26 06:02:46;;;;;;;;;;;;;;;9.43;43.26;100600.38;5225516;27;32937;-90
2022/03/26 06:05:20;;;;;;;;;;;;;;;9.57;43.14;100606.50;5228936;27;33703;-90
2022/03/26 06:07:49;;;;;;;;;;;;;;;9.61;43.07;100603.91;5231689;27;33742;-90
2022/03/26 06:10:18;;;;;;;;;;;;;;;9.61;43.28;100601.31;5225104;27;34219;-90
2022/03/26 06:12:46;;;;;;;;;;;;;;;9.75;42.47;100603.97;5225247;27;33551;-89
2022/03/26 06:15:15;;;;;;;;;;;;;;;9.72;42.65;100603.97;5226127;27;33277;-90
2022/03/26 06:18:03;;;;;;;;;;;;;;;9.89;42.18;100605.78;5226427;27;34674;-90
2022/03/26 06:20:33;;;;;;;;;;;;;;;10.03;42.20;100604.97;5212125;27;31932;-90
2022/03/26 06:23:02;;;;;;;;;;;;;;;10.18;41.94;100608.50;5230689;27;33041;-89
2022/03/26 06:25:32;;;;;;;;;;;;;;;10.29;42.14;100604.22;5226168;27;33130;-89
2022/03/26 06:28:01;;;;;;;;;;;;;;;10.49;41.95;100608.59;5225274;27;33835;-89
2022/03/26 06:30:29;;;;;;;;;;;;;;;10.54;41.90;100605.16;5225633;27;33839;-89
2022/03/26 06:32:58;;;;;;;;;;;;;;;10.77;41.25;100604.31;5225318;27;33449;-90
2022/03/26 06:35:27;;;;;;;;;;;;;;;10.83;41.14;100605.19;5230463;27;33845;-90
2022/03/26 06:37:57;;;;;;;;;;;;;;;11.08;40.15;100603.44;5225342;27;33812;-90
2022/03/26 06:40:26;;;;;;;;;;;;;;;11.19;39.87;100613.81;5225380;27;34260;-90
2022/03/26 06:42:54;;;;;;;;;;;;;;;11.13;39.85;100610.37;5225510;27;33663;-90
2022/03/26 06:45:24;;;;;;;;;;;;;;;11.45;39.35;100616.41;5193622;27;794815;-89
2022/03/26 06:47:53;;;;;;;;;;;;;;;11.32;39.57;100612.06;5229782;27;33558;-90
2022/03/26 06:50:21;;;;;;;;;;;;;;;11.86;37.84;100615.41;5206055;27;33109;-90
2022/03/26 06:52:50;;;;;;;;;;;;;;;11.62;38.03;100620.66;5225854;27;32943;-89
2022/03/26 06:55:20;;;;;;;;;;;;;;;11.84;37.87;100622.34;5223592;27;34384;-90
2022/03/26 06:57:48;;;;;;;;;;;;;;;12.01;36.62;100622.31;5205865;27;32727;-90
2022/03/26 07:00:17;;;;;;;;;;;;;;;12.07;36.53;100619.69;5213356;27;33837;-89
2022/03/26 07:02:46;;;;;;;;;;;;;;;12.47;35.41;100622.09;5207192;27;31590;-90
2022/03/26 07:05:15;;;;;;;;;;;;;;;12.33;35.34;100624.75;5226112;27;34348;-90
2022/03/26 07:07:43;;;;;;;;;;;;;;;11.97;36.30;100624.94;5225340;27;33612;-90
2022/03/26 07:10:13;;;;;;;;;;;;;;;12.41;35.83;100634.25;5226260;27;34502;-89
2022/03/26 07:12:44;;;;;;;;;;;;;;;12.26;36.63;100633.47;5231350;27;34037;-90
2022/03/26 07:15:12;;;;;;;;;;;;;;;12.54;36.10;100636.78;5231419;27;34260;-89
2022/03/26 07:17:42;;;;;;;;;;;;;;;12.52;36.38;100632.47;5225270;27;34406;-89
2022/03/26 07:20:11;;;;;;;;;;;;;;;12.90;36.14;100634.81;5225758;27;33694;-89
2022/03/26 07:22:40;;;;;;;;;;;;;;;12.87;35.92;100626.16;5226223;27;33989;-89
2022/03/26 07:25:09;;;;;;;;;;;;;;;13.24;35.69;100626.72;5225779;27;34239;-89
2022/03/26 07:27:40;;;;;;;;;;;;;;;13.32;36.16;100626.69;5231123;27;35037;-89
2022/03/26 07:30:15;;;;;;;;;;;;;;;13.59;34.81;100634.22;5206210;27;34540;-89
2022/03/26 07:32:45;;;;;;;;;;;;;;;13.77;34.94;100627.94;5226524;27;33837;-88
2022/03/26 07:35:17;;;;;;;;;;;;;;;13.61;34.69;100631.59;5225092;27;33922;-89
2022/03/26 07:37:45;;;;;;;;;;;;;;;13.74;34.42;100627.09;5206028;27;34709;-89
2022/03/26 07:40:15;;;;;;;;;;;;;;;13.69;34.41;100631.50;5231181;27;33999;-89
2022/03/26 07:42:47;;;;;;;;;;;;;;;14.10;33.46;100625.81;5230645;27;32947;-88
2022/03/26 07:45:17;;;;;;;;;;;;;;;14.27;32.68;100625.56;5227483;27;34049;-88
2022/03/26 07:47:45;;;;;;;;;;;;;;;14.27;32.43;100628.19;5226473;27;34203;-88
2022/03/26 07:50:13;;;;;;;;;;;;;;;14.33;32.04;100624.63;5225282;27;33535;-88
2022/03/26 07:52:42;;;;;;;;;;;;;;;14.09;32.64;100626.69;5225583;27;35446;-88
2022/03/26 07:55:11;;;;;;;;;;;;;;;14.43;32.00;100629.72;5211723;27;34072;-88
2022/03/26 07:57:40;;;;;;;;;;;;;;;14.25;31.90;100628.19;5225514;27;35049;-88
2022/03/26 08:00:09;;;;;;;;;;;;;;;14.32;31.59;100634.22;5225620;27;34890;-88
2022/03/26 08:02:41;;;;;;;;;;;;;;;14.41;31.18;100628.88;5228039;27;33377;-88
2022/03/26 08:05:10;;;;;;;;;;;;;;;14.51;31.53;100632.22;5225610;27;35791;-88
2022/03/26 08:07:38;;;;;;;;;;;;;;;14.49;31.34;100632.22;5230772;27;34033;-88
2022/03/26 08:10:07;;;;;;;;;;;;;;;14.40;31.56;100636.72;5226144;27;34228;-88
2022/03/26 08:12:37;;;;;;;;;;;;;;;14.43;31.70;100627.09;5226334;27;33908;-89
2022/03/26 08:15:06;;;;;;;;;;;;;;;14.36;31.94;100627.22;5226306;27;34767;-88
2022/03/26 08:17:35;;;;;;;;;;;;;;;14.52;31.35;100621.75;5206138;27;33411;-88
2022/03/26 08:20:08;;;;;;;;;;;;;;;14.30;32.29;100620.31;5232049;27;34561;-88
2022/03/26 08:22:37;;;;;;;;;;;;;;;14.67;32.19;100625.06;5229035;27;34042;-88
2022/03/26 08:25:06;;;;;;;;;;;;;;;14.76;31.68;100613.59;5226629;27;34036;-88
2022/03/26 08:27:35;;;;;;;;;;;;;;;14.90;31.98;100624.69;5225240;27;35049;-88
2022/03/26 08:30:03;;;;;;;;;;;;;;;15.04;31.77;100622.72;5225132;27;34864;-88
2022/03/26 08:32:32;;;;;;;;;;;;;;;15.17;31.08;100618.12;5225921;27;33126;-89
2022/03/26 08:35:00;;;;;;;;;;;;;;;15.47;31.11;100628.97;5232062;27;34556;-89
2022/03/26 08:37:35;;;;;;;;;;;;;;;15.44;30.90;100622.03;5226244;27;33623;-88
2022/03/26 08:40:04;;;;;;;;;;;;;;;15.33;31.23;100626.59;5226578;27;35328;-88
2022/03/26 08:42:33;;;;;;;;;;;;;;;15.70;30.13;100629.41;5225439;27;33665;-88
2022/03/26 08:45:01;;;;;;;;;;;;;;;15.97;29.48;100624.50;5225909;27;35022;-88
2022/03/26 08:47:30;;;;;;;;;;;;;;;15.83;29.46;100629.19;5231329;27;33817;-88
2022/03/26 08:49:59;;;;;;;;;;;;;;;15.66;30.36;100622.50;5206200;27;35188;-88
2022/03/26 08:52:28;;;;;;;;;;;;;;;15.89;30.32;100634.28;5226014;27;32929;-88
2022/03/26 08:54:58;;;;;;;;;;;;;;;15.96;29.83;100628.88;5223957;27;33546;-88
2022/03/26 08:57:27;;;;;;;;;;;;;;;15.91;30.35;100629.87;5226111;27;36194;-88
2022/03/26 08:59:55;;;;;;;;;;;;;;;16.15;29.76;100621.53;5231426;27;34896;-88
2022/03/26 09:02:25;;;;;;;;;;;;;;;16.19;29.42;100631.03;5225183;27;34065;-88
2022/03/26 09:04:54;;;;;;;;;;;;;;;16.26;29.95;100626.53;5225686;27;34554;-88
2022/03/26 09:07:24;;;;;;;;;;;;;;;16.17;29.93;100624.97;5226017;27;35101;-88
2022/03/26 09:09:52;;;;;;;;;;;;;;;16.58;29.31;100619.72;5225238;27;34922;-88
2022/03/26 09:12:25;;;;;;;;;;;;;;;16.30;29.68;100625.56;5227894;27;33152;-89
2022/03/26 09:14:54;;;;;;;;;;;;;;;16.20;29.83;100624.03;5229737;27;35178;-88
2022/03/26 09:17:22;;;;;;;;;;;;;;;16.15;29.95;100616.28;5224644;27;33910;-88
2022/03/26 09:19:53;;;;;;;;;;;;;;;16.44;30.18;100620.03;5205901;27;33215;-88
2022/03/26 09:22:26;;;;;;;;;;;;;;;16.57;29.62;100618.84;5202962;27;34175;-88
2022/03/26 09:24:54;;;;;;;;;;;;;;;16.82;29.21;100615.69;5220993;27;33792;-88
2022/03/26 09:27:31;;;;;;;;;;;;;;;16.87;29.19;100619.06;5230023;27;33865;-88
2022/03/26 09:30:02;;;;;;;;;;;;;;;17.02;29.16;100615.19;5223076;27;35359;-88
2022/03/26 09:32:48;;;;;;;;;;;;;;;17.24;28.70;100612.88;5223232;27;33757;-89
2022/03/26 09:35:16;;;;;;;;;;;;;;;17.30;28.22;100604.88;5221744;27;34612;-89
2022/03/26 09:37:45;;;;;;;;;;;;;;;17.18;28.26;100599.91;5222915;27;33578;-88
2022/03/26 09:40:20;;;;;;;;;;;;;;;17.40;27.98;100611.59;5223368;27;34419;-89
2022/03/26 09:42:51;;;;;;;;;;;;;;;17.37;28.49;100592.44;5207976;27;33757;-88
2022/03/26 09:45:22;;;;;;;;;;;;;;;17.37;27.72;100595.06;5204349;27;36286;-90
2022/03/26 09:47:53;;;;;;;;;;;;;;;17.44;27.92;100607.09;5221592;27;34927;-90
2022/03/26 09:50:26;;;;;;;;;;;;;;;17.40;27.56;100608.12;5217124;27;33675;-89
2022/03/26 09:52:56;;;;;;;;;;;;;;;17.36;28.23;100609.09;5202813;27;33764;-90
2022/03/26 09:55:25;;;;;;;;;;;;;;;17.69;27.08;100609.94;5203567;27;34558;-90
2022/03/26 09:57:57;;;;;;;;;;;;;;;17.64;27.52;100601.34;5209520;27;33361;-90
2022/03/26 10:00:26;;;;;;;;;;;;;;;17.92;27.00;100599.66;5204572;27;33294;-90
2022/03/26 10:02:55;;;;;;;;;;;;;;;17.84;26.59;100595.56;5223443;27;33329;-90
2022/03/26 10:05:31;;;;;;;;;;;;;;;17.87;25.47;100601.56;5224423;27;33826;-90
2022/03/26 10:08:05;;;;;;;;;;;;;;;17.95;25.39;100603.97;5224083;27;35506;-89
2022/03/26 10:10:38;;;;;;;;;;;;;;;17.89;24.72;100615.50;5229963;27;33777;-89
2022/03/26 10:13:09;;;;;;;;;;;;;;;17.71;25.11;100608.12;5210424;27;31507;-89
2022/03/26 10:15:37;;;;;;;;;;;;;;;17.80;25.24;100602.63;5223731;27;34427;-89
2022/03/26 10:18:09;;;;;;;;;;;;;;;18.13;24.77;100595.56;5223430;27;33890;-89
2022/03/26 10:20:37;;;;;;;;;;;;;;;18.40;24.41;100595.63;5224325;27;35009;-90
2022/03/26 10:23:06;;;;;;;;;;;;;;;18.44;22.11;100596.41;5223223;27;33920;-90
2022/03/26 10:25:34;;;;;;;;;;;;;;;18.20;22.81;100592.75;5231111;27;33828;-90
2022/03/26 10:28:03;;;;;;;;;;;;;;;18.60;22.36;100583.63;5223334;27;33974;-89
2022/03/26 10:33:20;;;;;;;;;;;;;;;18.63;22.99;100588.75;5224295;27;33118;-88
2022/03/26 10:35:54;;;;;;;;;;;;;;;18.71;22.82;100585.00;5224129;27;34049;-88
2022/03/26 10:38:27;;;;;;;;;;;;;;;18.64;21.26;100577.38;5225283;27;34911;-88
2022/03/26 10:40:58;;;;;;;;;;;;;;;18.58;21.38;100572.28;5230986;27;34518;-87
2022/03/26 10:43:27;;;;;;;;;;;;;;;18.85;21.88;100574.06;5224576;27;34098;-88
2022/03/26 10:45:58;;;;;;;;;;;;;;;19.06;23.02;100579.50;5223608;27;34220;-87
2022/03/26 10:48:28;;;;;;;;;;;;;;;18.60;22.40;100573.97;5223410;27;34284;-87
2022/03/26 10:50:57;;;;;;;;;;;;;;;18.80;23.17;100581.25;5225728;27;34883;-88
2022/03/26 10:53:33;;;;;;;;;;;;;;;19.21;22.68;100572.84;5229822;27;34258;-88
2022/03/26 10:56:02;;;;;;;;;;;;;;;19.10;22.99;100574.09;5228491;27;34302;-89
2022/03/26 10:58:31;;;;;;;;;;;;;;;19.23;22.61;100568.41;5222768;27;33916;-87
2022/03/26 11:01:03;;;;;;;;;;;;;;;19.32;22.20;100560.19;5221017;27;33400;-89
2022/03/26 11:03:32;;;;;;;;;;;;;;;19.27;21.90;100567.38;5223408;27;34212;-88
2022/03/26 11:06:01;;;;;;;;;;;;;;;19.11;21.45;100562.69;5224172;27;33961;-88
2022/03/26 11:08:30;;;;;;;;;;;;;;;18.50;22.47;100555.00;5228690;27;33709;-88
2022/03/26 11:10:59;;;;;;;;;;;;;;;18.83;22.87;100548.75;5223168;27;34600;-88
2022/03/26 11:13:28;;;;;;;;;;;;;;;19.05;22.43;100557.59;5222278;27;33546;-88
2022/03/26 11:15:57;;;;;;;;;;;;;;;19.02;22.27;100554.25;5222557;27;34826;-88
2022/03/26 11:18:38;;;;;;;;;;;;;;;18.77;22.29;100544.53;5222010;27;33663;-89
2022/03/26 11:21:19;;;;;;;;;;;;;;;18.76;22.37;100551.56;5229404;27;34576;-88
2022/03/26 11:23:59;;;;;;;;;;;;;;;18.95;21.55;100543.91;5229962;27;33345;-88
2022/03/26 11:26:34;;;;;;;;;;;;;;;18.72;22.15;100541.16;5225079;27;34624;-88
2022/03/26 11:29:10;;;;;;;;;;;;;;;19.17;21.43;100530.03;5224796;27;34699;-89
2022/03/26 11:31:40;;;;;;;;;;;;;;;19.44;20.92;100532.59;5224803;27;34279;-88
2022/03/26 11:34:10;;;;;;;;;;;;;;;19.29;20.71;100532.22;5224314;27;32870;-88
2022/03/26 11:36:38;;;;;;;;;;;;;;;19.17;21.19;100532.66;5223197;27;33927;-88
2022/03/26 11:39:11;;;;;;;;;;;;;;;19.09;20.67;100522.41;5231383;27;34517;-88
2022/03/26 11:41:40;;;;;;;;;;;;;;;19.01;21.30;100513.91;5224399;27;34218;-88
2022/03/26 11:44:09;;;;;;;;;;;;;;;19.23;21.11;100507.91;5225035;27;33701;-87
2022/03/26 11:52:20;;;;;;;;;;;;;;;18.82;21.22;100508.44;5225970;27;34527;-88
2022/03/26 11:54:50;;;;;;;;;;;;;;;18.86;21.19;100494.28;5227894;27;34077;-88
2022/03/26 11:57:19;;;;;;;;;;;;;;;19.12;20.52;100493.38;5226933;27;34337;-88
2022/03/26 11:59:48;;;;;;;;;;;;;;;19.08;20.25;100496.16;5225192;27;35243;-88
2022/03/26 12:02:18;;;;;;;;;;;;;;;19.37;20.96;100484.56;5225462;27;33912;-88
2022/03/26 12:04:52;;;;;;;;;;;;;;;19.42;20.44;100485.25;5223687;27;34244;-88
2022/03/26 12:07:21;;;;;;;;;;;;;;;19.30;20.05;100486.56;5225873;27;33837;-88
2022/03/26 12:09:53;;;;;;;;;;;;;;;19.25;19.87;100491.13;5230783;27;33936;-88
2022/03/26 12:12:22;;;;;;;;;;;;;;;19.05;20.22;100488.37;5224692;27;34698;-87
2022/03/26 12:15:11;;;;;;;;;;;;;;;19.31;19.80;100475.16;5225204;27;34106;-87
2022/03/26 12:17:42;;;;;;;;;;;;;;;19.02;20.28;100470.94;5226148;27;34747;-88
2022/03/26 12:20:23;;;;;;;;;;;;;;;19.65;19.92;100468.63;5225869;27;34735;-87
2022/03/26 12:22:51;;;;;;;;;;;;;;;19.48;19.03;100471.03;5225306;27;35494;-87
2022/03/26 12:25:45;;;;;;;;;;;;;;;19.57;19.26;100454.88;5230629;27;33454;-87
2022/03/26 12:28:14;;;;;;;;;;;;;;;19.73;19.02;100470.97;5231573;27;34997;-87
2022/03/26 12:30:47;;;;;;;;;;;;;;;19.78;18.96;100461.13;5224019;27;34978;-87
2022/03/26 12:33:16;;;;;;;;;;;;;;;19.76;19.00;100450.66;5224222;27;33726;-87
2022/03/26 12:35:47;;;;;;;;;;;;;;;19.79;18.76;100445.28;5223327;27;33001;-87
2022/03/26 12:38:16;;;;;;;;;;;;;;;20.08;17.88;100456.44;5203676;27;33649;-88
2022/03/26 12:40:51;;;;;;;;;;;;;;;19.91;17.99;100438.69;5228759;27;33717;-87
2022/03/26 12:43:23;;;;;;;;;;;;;;;19.95;17.07;100439.41;5231000;27;34341;-87
2022/03/26 12:45:52;;;;;;;;;;;;;;;20.16;17.33;100432.41;5223484;27;34067;-88
2022/03/26 12:48:23;;;;;;;;;;;;;;;20.42;16.00;100439.25;5222814;27;33933;-88
2022/03/26 12:50:53;;;;;;;;;;;;;;;20.49;17.14;100434.53;5223550;27;34835;-89
2022/03/26 12:53:24;;;;;;;;;;;;;;;20.54;16.63;100432.56;5225401;27;34185;-88
2022/03/26 12:55:54;;;;;;;;;;;;;;;20.32;16.53;100415.06;5210256;27;33302;-88
2022/03/26 13:01:09;;;;;;;;;;;;;;;20.34;16.00;100430.78;5221581;27;34324;-88
2022/03/26 13:03:38;;;;;;;;;;;;;;;20.17;16.24;100421.78;5222398;27;34110;-88
2022/03/26 13:06:09;;;;;;;;;;;;;;;20.58;16.40;100418.38;5224069;27;33551;-88